Time;durP1;ratioP1;P1;durP2;ratioP2;P2;SDS_P1;SDS_P2;PMS_P1;PMS_P2;Temp;Humidity;BMP_temperature;BMP_pressure;BME280_temperature;BME280_humidity;BME280_pressure;Samples;Min_cycle;Max_cycle;Signal;HPM_P1;HPM_P2
2022/01/11 00:00:25;;;;;;;64.35;23.88;;;1.10;99.90;;;;;;5046776;28;20474;-76
2022/01/11 00:02:52;;;;;;;71.18;24.67;;;1.10;99.90;;;;;;5047800;28;20052;-77
2022/01/11 00:05:26;;;;;;;66.68;24.00;;;1.10;99.90;;;;;;5033341;28;20584;-76
2022/01/11 00:07:53;;;;;;;60.15;21.65;;;1.10;99.90;;;;;;5044323;28;20108;-78
2022/01/11 00:10:35;;;;;;;106.13;28.38;;;1.10;99.90;;;;;;5049762;28;20037;-76
2022/01/11 00:13:01;;;;;;;67.70;25.92;;;1.10;99.90;;;;;;5044494;28;20087;-76
2022/01/11 00:15:28;;;;;;;64.47;26.15;;;1.10;99.90;;;;;;5028707;28;20477;-77
2022/01/11 00:17:55;;;;;;;70.88;24.83;;;1.00;99.90;;;;;;5040896;28;20025;-76
2022/01/11 00:20:21;;;;;;;58.85;23.58;;;1.10;99.90;;;;;;5042305;28;20088;-75
2022/01/11 00:25:23;;;;;;;74.30;25.83;;;1.10;99.90;;;;;;5049733;28;20060;-77
2022/01/11 00:27:49;;;;;;;77.75;25.00;;;1.10;99.90;;;;;;5049275;28;20065;-77
2022/01/11 00:30:15;;;;;;;64.13;23.70;;;1.10;99.90;;;;;;5047766;28;20025;-76
2022/01/11 00:32:46;;;;;;;229.82;28.48;;;1.00;99.90;;;;;;5048837;28;20041;-76
2022/01/11 00:35:15;;;;;;;114.10;20.85;;;1.00;99.90;;;;;;5033394;28;20033;-73
2022/01/11 00:37:43;;;;;;;177.43;21.35;;;1.00;99.90;;;;;;5048956;28;20025;-77
2022/01/11 00:40:09;;;;;;;126.43;20.85;;;1.00;99.90;;;;;;5049395;28;20039;-78
2022/01/11 00:42:35;;;;;;;49.22;17.92;;;1.00;99.90;;;;;;5045700;28;20141;-78
2022/01/11 00:45:04;;;;;;;66.07;19.30;;;1.00;99.90;;;;;;5046765;28;20116;-77
2022/01/11 00:47:29;;;;;;;69.50;20.70;;;1.00;99.90;;;;;;5039427;28;20029;-77
2022/01/11 00:49:55;;;;;;;58.45;19.63;;;1.00;99.90;;;;;;5044120;28;20370;-78
2022/01/11 00:52:21;;;;;;;51.85;18.88;;;1.00;99.90;;;;;;5047582;28;20086;-77
2022/01/11 00:54:47;;;;;;;58.78;20.65;;;1.00;99.90;;;;;;5049659;28;20041;-74
2022/01/11 00:57:13;;;;;;;61.78;20.95;;;1.00;99.90;;;;;;5039469;28;20025;-74
2022/01/11 00:59:38;;;;;;;53.05;20.02;;;1.00;99.90;;;;;;5041235;28;20115;-78
2022/01/11 01:02:05;;;;;;;60.65;22.15;;;1.00;99.90;;;;;;5024313;28;20060;-76
2022/01/11 01:04:31;;;;;;;52.75;20.65;;;1.00;99.90;;;;;;5038201;28;20043;-77
2022/01/11 01:06:57;;;;;;;64.97;22.30;;;1.10;99.90;;;;;;5047444;28;20033;-78
2022/01/11 01:09:26;;;;;;;58.90;20.90;;;1.10;99.90;;;;;;5047660;28;20111;-77
2022/01/11 01:11:51;;;;;;;56.17;20.70;;;1.10;99.90;;;;;;5042561;28;20033;-76
2022/01/11 01:14:17;;;;;;;60.50;21.83;;;1.20;99.90;;;;;;5035514;28;20049;-76
2022/01/11 01:16:43;;;;;;;63.67;23.00;;;1.10;99.90;;;;;;5034167;28;20036;-77
2022/01/11 01:19:09;;;;;;;65.38;22.75;;;1.10;99.90;;;;;;5039414;28;20079;-75
2022/01/11 01:21:38;;;;;;;63.60;22.20;;;1.10;99.90;;;;;;5037865;28;20030;-75
2022/01/11 01:24:06;;;;;;;60.63;22.58;;;1.10;99.90;;;;;;5048032;28;20036;-76
2022/01/11 01:26:32;;;;;;;57.83;21.77;;;1.10;99.90;;;;;;5048655;28;20065;-76
2022/01/11 01:28:59;;;;;;;64.72;22.85;;;1.10;99.90;;;;;;5044223;28;20426;-77
2022/01/11 01:31:26;;;;;;;68.47;24.15;;;1.10;99.90;;;;;;5048322;28;20116;-75
2022/01/11 01:33:53;;;;;;;61.03;22.25;;;1.10;99.90;;;;;;5048421;28;20123;-77
2022/01/11 01:36:18;;;;;;;61.20;22.55;;;1.20;99.90;;;;;;5048803;28;20029;-77
2022/01/11 01:38:44;;;;;;;69.68;23.83;;;1.10;99.90;;;;;;5049350;28;20028;-77
2022/01/11 01:41:16;;;;;;;63.78;23.25;;;1.10;99.90;;;;;;5041674;28;20041;-77
2022/01/11 01:43:44;;;;;;;183.35;26.45;;;1.20;99.90;;;;;;5044714;28;20732;-77
2022/01/11 01:46:10;;;;;;;280.98;27.15;;;1.10;99.90;;;;;;5021067;28;20029;-76
2022/01/11 01:48:36;;;;;;;214.65;25.00;;;1.00;99.90;;;;;;5031071;28;20093;-74
2022/01/11 01:51:03;;;;;;;172.00;22.90;;;1.00;99.90;;;;;;5042451;28;20056;-78
2022/01/11 01:53:29;;;;;;;56.17;20.08;;;1.00;99.90;;;;;;5043878;28;20465;-78
2022/01/11 01:55:55;;;;;;;57.67;20.00;;;1.00;99.90;;;;;;5047798;28;20036;-75
2022/01/11 01:58:21;;;;;;;59.38;21.20;;;0.90;99.90;;;;;;5046496;28;20408;-72
2022/01/11 02:00:54;;;;;;;67.20;23.75;;;1.00;99.90;;;;;;5046284;28;20024;-77
2022/01/11 02:03:26;;;;;;;64.90;22.98;;;1.00;99.90;;;;;;5022154;28;20036;-74
2022/01/11 02:05:53;;;;;;;61.67;23.73;;;1.00;99.90;;;;;;5041971;28;20036;-78
2022/01/11 02:08:19;;;;;;;67.43;23.70;;;1.00;99.90;;;;;;5046275;28;20393;-73
2022/01/11 02:10:45;;;;;;;61.08;23.00;;;1.00;99.90;;;;;;5042248;28;20033;-77
2022/01/11 02:13:11;;;;;;;58.58;21.45;;;1.10;99.90;;;;;;5045697;28;20397;-77
2022/01/11 02:15:37;;;;;;;63.95;22.92;;;1.10;99.90;;;;;;5043479;28;20102;-77
2022/01/11 02:18:15;;;;;;;61.78;22.30;;;1.10;99.90;;;;;;5025072;28;20037;-78
2022/01/11 02:20:44;;;;;;;60.13;22.25;;;1.10;99.90;;;;;;5041487;28;20033;-78
2022/01/11 02:23:10;;;;;;;56.72;20.83;;;1.10;99.90;;;;;;5048495;28;20025;-78
2022/01/11 02:25:36;;;;;;;58.63;21.52;;;1.10;99.90;;;;;;5048384;28;20358;-77
2022/01/11 02:28:03;;;;;;;62.10;20.80;;;1.10;99.90;;;;;;5029929;28;20025;-78
2022/01/11 02:30:32;;;;;;;64.35;20.27;;;1.20;99.90;;;;;;5046021;28;20033;-77
2022/01/11 02:32:58;;;;;;;68.55;21.38;;;1.20;99.90;;;;;;5036133;28;20048;-77
2022/01/11 02:35:24;;;;;;;182.45;26.17;;;1.20;99.90;;;;;;5037918;28;20033;-78
2022/01/11 02:37:50;;;;;;;129.10;23.67;;;1.20;99.90;;;;;;5038392;28;20035;-77
2022/01/11 02:40:16;;;;;;;54.83;21.08;;;1.20;99.90;;;;;;5043636;28;20489;-76
2022/01/11 02:42:41;;;;;;;64.78;21.25;;;1.10;99.90;;;;;;5044616;28;20052;-78
2022/01/11 02:45:27;;;;;;;56.40;20.15;;;1.10;99.90;;;;;;5046695;28;20033;-74
2022/01/11 02:47:53;;;;;;;58.75;20.65;;;1.00;99.90;;;;;;5037712;28;20037;-78
2022/01/11 02:50:19;;;;;;;54.55;20.60;;;1.10;99.90;;;;;;5031390;28;20462;-72
2022/01/11 02:52:44;;;;;;;58.13;20.23;;;1.10;99.90;;;;;;5038746;28;20052;-77
2022/01/11 02:55:13;;;;;;;53.08;18.90;;;1.10;99.90;;;;;;5044224;28;20115;-76
2022/01/11 02:57:39;;;;;;;56.10;17.83;;;1.10;99.90;;;;;;5046052;28;20623;-77
2022/01/11 03:00:09;;;;;;;59.78;19.58;;;1.10;99.90;;;;;;5046035;28;20060;-77
2022/01/11 03:02:34;;;;;;;53.40;19.23;;;1.10;99.90;;;;;;5044733;28;20024;-78
2022/01/11 03:05:00;;;;;;;55.00;18.38;;;1.00;99.90;;;;;;5041236;28;20110;-76
2022/01/11 03:07:26;;;;;;;50.08;18.48;;;1.10;99.90;;;;;;5043711;28;20108;-76
2022/01/11 03:10:08;;;;;;;57.10;18.10;;;1.10;99.90;;;;;;5047518;28;20537;-78
2022/01/11 03:12:35;;;;;;;59.03;19.52;;;1.10;99.90;;;;;;5036947;28;20033;-76
2022/01/11 03:15:01;;;;;;;58.60;19.42;;;1.20;99.90;;;;;;5050793;28;20049;-78
2022/01/11 03:17:27;;;;;;;73.95;19.48;;;1.20;99.90;;;;;;5037257;28;20041;-78
2022/01/11 03:19:54;;;;;;;54.63;19.40;;;1.10;99.90;;;;;;5044845;28;20547;-76
2022/01/11 03:22:20;;;;;;;52.53;18.00;;;1.10;99.90;;;;;;5052027;28;20033;-75
2022/01/11 03:24:46;;;;;;;51.78;18.13;;;1.10;99.90;;;;;;5041615;28;20033;-78
2022/01/11 03:27:11;;;;;;;53.35;19.42;;;1.10;99.90;;;;;;5050711;28;20428;-78
2022/01/11 03:29:40;;;;;;;99.05;23.38;;;1.10;99.90;;;;;;5047379;28;20562;-78
2022/01/11 03:32:07;;;;;;;54.65;19.50;;;1.10;99.90;;;;;;5048785;28;20492;-75
2022/01/11 03:34:33;;;;;;;52.05;18.67;;;1.10;99.90;;;;;;5033311;28;20037;-77
2022/01/11 03:36:59;;;;;;;49.40;17.88;;;1.00;99.90;;;;;;5050985;28;20096;-76
2022/01/11 03:39:26;;;;;;;54.20;18.92;;;1.10;99.90;;;;;;5049922;28;20125;-71
2022/01/11 03:41:51;;;;;;;47.92;17.83;;;1.10;99.90;;;;;;5037470;28;20029;-77
2022/01/11 03:44:17;;;;;;;61.90;20.75;;;1.10;99.90;;;;;;5044616;28;20405;-75
2022/01/11 03:46:43;;;;;;;214.60;26.52;;;1.10;99.90;;;;;;5049362;28;20060;-77
2022/01/11 03:49:08;;;;;;;124.75;22.10;;;1.10;99.90;;;;;;5051282;28;20082;-76
2022/01/11 03:51:38;;;;;;;58.00;20.15;;;1.10;99.90;;;;;;5049345;28;20033;-77
2022/01/11 03:54:10;;;;;;;72.60;20.90;;;1.10;99.90;;;;;;5051494;28;20038;-78
2022/01/11 03:56:37;;;;;;;75.85;20.52;;;1.00;99.90;;;;;;5041390;28;20025;-78
2022/01/11 03:59:06;;;;;;;56.95;19.33;;;1.00;99.90;;;;;;5034030;28;20538;-77
2022/01/11 04:01:36;;;;;;;56.85;20.05;;;0.90;99.90;;;;;;5047198;28;20040;-78
2022/01/11 04:04:02;;;;;;;53.50;20.92;;;0.90;99.90;;;;;;5043370;28;20037;-78
2022/01/11 04:06:27;;;;;;;65.65;20.30;;;0.90;99.90;;;;;;5048323;28;20028;-76
2022/01/11 04:08:53;;;;;;;64.57;20.65;;;0.90;99.90;;;;;;5046828;28;20389;-79
2022/01/11 04:11:20;;;;;;;57.13;19.38;;;0.90;99.90;;;;;;5027488;28;20044;-79
2022/01/11 04:13:46;;;;;;;55.10;19.77;;;0.90;99.90;;;;;;5042347;28;20041;-77
2022/01/11 04:16:11;;;;;;;53.10;18.83;;;0.90;99.90;;;;;;5047724;28;20377;-77
2022/01/11 04:18:37;;;;;;;51.95;18.63;;;0.90;99.90;;;;;;5041092;28;20037;-79
2022/01/11 04:21:04;;;;;;;73.32;21.67;;;0.90;99.90;;;;;;5043249;28;20142;-78
2022/01/11 04:23:30;;;;;;;258.20;28.60;;;1.00;99.90;;;;;;5042434;28;20037;-77
2022/01/11 04:25:56;;;;;;;64.25;20.38;;;1.00;99.90;;;;;;5043849;28;20037;-78
2022/01/11 04:28:25;;;;;;;233.00;27.55;;;1.00;99.90;;;;;;5037363;28;20029;-78
2022/01/11 04:30:52;;;;;;;60.60;19.17;;;0.90;99.90;;;;;;5047548;28;20052;-74
2022/01/11 04:33:19;;;;;;;59.45;21.00;;;0.90;99.90;;;;;;5050210;28;20028;-78
2022/01/11 04:35:48;;;;;;;58.45;20.10;;;0.90;99.90;;;;;;5049136;28;20176;-77
2022/01/11 04:38:19;;;;;;;57.17;20.20;;;0.90;99.90;;;;;;5050268;28;20473;-78
2022/01/11 04:40:45;;;;;;;101.00;20.83;;;1.00;99.90;;;;;;5047586;28;20024;-76
2022/01/11 04:43:11;;;;;;;85.43;20.88;;;1.00;99.90;;;;;;5039328;28;20461;-76
2022/01/11 04:45:36;;;;;;;68.55;20.45;;;0.90;99.90;;;;;;5041642;28;20111;-76
2022/01/11 04:48:02;;;;;;;57.45;19.95;;;0.90;99.90;;;;;;5042633;28;20033;-76
2022/01/11 04:50:29;;;;;;;49.40;18.55;;;0.90;99.90;;;;;;5032000;28;20112;-74
2022/01/11 04:52:55;;;;;;;51.15;17.80;;;0.90;99.90;;;;;;5050227;28;20039;-72
2022/01/11 04:55:21;;;;;;;53.13;18.88;;;0.80;99.90;;;;;;5035235;28;20025;-75
2022/01/11 04:57:47;;;;;;;54.75;19.55;;;0.90;99.90;;;;;;5032667;28;20104;-70
2022/01/11 05:00:15;;;;;;;51.78;18.10;;;0.90;99.90;;;;;;5048450;28;20030;-73
2022/01/11 05:02:41;;;;;;;51.92;17.38;;;1.00;99.90;;;;;;5050221;28;20116;-73
2022/01/11 05:05:08;;;;;;;46.85;17.45;;;1.00;99.90;;;;;;5045124;28;20040;-74
2022/01/11 05:07:33;;;;;;;46.13;18.02;;;1.00;99.90;;;;;;5046630;28;20037;-72
2022/01/11 05:09:59;;;;;;;52.92;17.85;;;1.00;99.90;;;;;;5048044;28;20559;-72
2022/01/11 05:12:25;;;;;;;45.97;16.55;;;1.00;99.90;;;;;;5040680;28;20056;-74
2022/01/11 05:14:50;;;;;;;51.88;17.95;;;1.00;99.90;;;;;;5034308;28;20131;-80
2022/01/11 05:17:16;;;;;;;48.47;17.05;;;1.10;99.90;;;;;;5044287;28;20029;-84
2022/01/11 05:19:42;;;;;;;53.60;18.85;;;1.10;99.90;;;;;;5048909;28;20033;-80
2022/01/11 05:22:08;;;;;;;54.80;16.73;;;1.00;99.90;;;;;;5048656;28;20069;-80
2022/01/11 05:24:33;;;;;;;59.47;19.42;;;1.10;99.90;;;;;;5041728;28;20073;-77
2022/01/11 05:26:59;;;;;;;54.65;17.70;;;1.10;99.90;;;;;;5031565;28;20087;-77
2022/01/11 05:29:25;;;;;;;52.40;17.50;;;1.00;99.90;;;;;;5030173;28;20068;-77
2022/01/11 05:31:50;;;;;;;51.08;16.60;;;1.00;99.90;;;;;;5034227;28;20045;-77
2022/01/11 05:34:16;;;;;;;43.40;15.77;;;1.00;99.90;;;;;;5037726;28;20082;-79
2022/01/11 05:36:42;;;;;;;45.33;16.30;;;1.00;99.90;;;;;;5045894;28;20385;-79
2022/01/11 05:39:08;;;;;;;47.50;16.13;;;1.00;99.90;;;;;;5049066;28;20069;-75
2022/01/11 05:41:34;;;;;;;44.85;15.68;;;1.00;99.90;;;;;;5044278;28;20075;-75
2022/01/11 05:44:02;;;;;;;50.22;16.02;;;1.00;99.90;;;;;;5018873;28;20037;-70
2022/01/11 05:46:29;;;;;;;38.90;14.45;;;1.00;99.90;;;;;;5042642;28;20540;-67
2022/01/11 05:48:55;;;;;;;47.70;15.80;;;1.00;99.90;;;;;;5041737;28;20071;-68
2022/01/11 05:51:21;;;;;;;37.88;15.75;;;1.00;99.90;;;;;;5044862;28;20045;-71
2022/01/11 05:53:47;;;;;;;40.05;14.73;;;1.00;99.90;;;;;;5045528;28;20043;-68
2022/01/11 05:56:12;;;;;;;37.03;13.57;;;1.00;99.90;;;;;;5044599;28;20059;-69
2022/01/11 05:58:38;;;;;;;41.97;14.60;;;1.00;99.90;;;;;;5032701;28;20036;-70
2022/01/11 06:01:04;;;;;;;46.10;15.93;;;1.00;99.90;;;;;;5047245;28;20056;-69
2022/01/11 06:03:29;;;;;;;37.85;14.32;;;1.00;99.90;;;;;;5040787;28;20477;-70
2022/01/11 06:05:55;;;;;;;40.70;13.68;;;1.00;99.90;;;;;;5038401;28;20040;-72
2022/01/11 06:08:21;;;;;;;33.13;12.88;;;1.00;99.90;;;;;;5045810;28;20218;-71
2022/01/11 06:10:47;;;;;;;41.42;14.05;;;1.00;99.90;;;;;;5046090;28;20154;-71
2022/01/11 06:13:13;;;;;;;38.13;14.60;;;1.00;99.90;;;;;;5040596;28;20106;-70
2022/01/11 06:15:39;;;;;;;40.50;14.13;;;1.00;99.90;;;;;;5028155;28;20037;-69
2022/01/11 06:18:06;;;;;;;39.50;13.95;;;1.00;99.90;;;;;;5030584;28;20454;-69
2022/01/11 06:20:31;;;;;;;41.78;14.63;;;1.00;99.90;;;;;;5038239;28;20033;-67
2022/01/11 06:22:58;;;;;;;48.72;16.35;;;1.00;99.90;;;;;;5030930;28;20505;-70
2022/01/11 06:25:24;;;;;;;44.25;15.85;;;1.00;99.90;;;;;;5034464;28;20144;-70
2022/01/11 06:27:50;;;;;;;42.88;15.77;;;1.10;99.90;;;;;;5046553;28;20104;-69
2022/01/11 06:30:17;;;;;;;54.28;18.23;;;1.10;99.90;;;;;;5043887;28;20025;-71
2022/01/11 06:32:44;;;;;;;51.40;18.05;;;1.10;99.90;;;;;;5041378;28;20033;-71
2022/01/11 06:35:12;;;;;;;46.97;18.52;;;1.10;99.90;;;;;;5029523;28;20033;-71
2022/01/11 06:37:37;;;;;;;44.22;14.65;;;1.10;99.90;;;;;;5035122;28;20044;-72
2022/01/11 06:40:04;;;;;;;38.40;14.13;;;1.10;99.90;;;;;;5033393;28;20024;-71
2022/01/11 06:42:31;;;;;;;38.08;14.07;;;1.10;99.90;;;;;;5037523;28;20029;-72
2022/01/11 06:44:56;;;;;;;39.95;14.48;;;1.10;99.90;;;;;;5038363;28;20033;-70
2022/01/11 06:47:22;;;;;;;42.80;15.13;;;1.10;99.90;;;;;;5045981;28;20036;-70
2022/01/11 06:49:48;;;;;;;46.75;14.20;;;1.10;99.90;;;;;;5047514;28;20037;-70
2022/01/11 06:52:14;;;;;;;42.67;14.57;;;1.10;99.90;;;;;;5044520;28;20044;-70
2022/01/11 06:54:41;;;;;;;41.63;15.15;;;1.10;99.90;;;;;;5041649;28;20369;-71
2022/01/11 06:57:08;;;;;;;41.35;14.48;;;1.10;99.90;;;;;;5035354;28;20029;-67
2022/01/11 06:59:36;;;;;;;45.42;14.90;;;1.10;99.90;;;;;;5034560;28;20044;-69
2022/01/11 07:02:06;;;;;;;39.08;15.38;;;1.10;99.90;;;;;;5033587;28;20457;-69
2022/01/11 07:04:33;;;;;;;45.33;16.63;;;1.10;99.90;;;;;;5045372;28;20029;-68
2022/01/11 07:07:00;;;;;;;43.88;15.15;;;1.10;99.90;;;;;;5044929;28;20032;-67
2022/01/11 07:09:26;;;;;;;42.08;14.23;;;1.20;99.90;;;;;;5029676;28;20061;-68
2022/01/11 07:11:52;;;;;;;42.15;15.10;;;1.10;99.90;;;;;;5024185;28;20103;-71
2022/01/11 07:14:17;;;;;;;42.28;15.20;;;1.10;99.90;;;;;;5026682;28;20061;-70
2022/01/11 07:16:48;;;;;;;35.75;13.27;;;1.00;99.90;;;;;;5037057;28;20029;-70
2022/01/11 07:19:21;;;;;;;37.13;13.77;;;1.00;99.90;;;;;;5039117;28;20029;-71
2022/01/11 07:21:47;;;;;;;34.00;13.35;;;1.10;99.90;;;;;;5037755;28;20453;-69
2022/01/11 07:24:15;;;;;;;43.55;15.40;;;1.10;99.90;;;;;;5047725;28;20048;-69
2022/01/11 07:26:41;;;;;;;38.20;14.38;;;1.10;99.90;;;;;;5038751;28;20029;-70
2022/01/11 07:29:08;;;;;;;97.75;39.30;;;1.10;99.90;;;;;;5041089;28;20056;-71
2022/01/11 07:31:37;;;;;;;123.20;50.95;;;1.20;99.90;;;;;;5042619;28;20504;-71
2022/01/11 07:34:04;;;;;;;60.90;25.55;;;1.20;99.90;;;;;;5023115;28;20037;-70
2022/01/11 07:36:30;;;;;;;45.92;17.70;;;1.20;99.90;;;;;;5031044;28;20033;-70
2022/01/11 07:38:55;;;;;;;45.88;17.65;;;1.20;99.90;;;;;;5042074;28;20021;-71
2022/01/11 07:41:21;;;;;;;51.15;17.70;;;1.20;99.90;;;;;;5036068;28;20041;-69
2022/01/11 07:43:50;;;;;;;41.85;16.52;;;1.20;99.90;;;;;;5042750;28;20077;-71
2022/01/11 07:46:16;;;;;;;48.33;19.83;;;1.20;99.90;;;;;;5040527;28;20355;-70
2022/01/11 07:48:41;;;;;;;48.08;17.42;;;1.30;99.90;;;;;;5042178;28;20025;-69
2022/01/11 07:51:08;;;;;;;41.85;15.90;;;1.30;99.90;;;;;;5038545;28;20396;-67
2022/01/11 07:53:34;;;;;;;39.15;14.95;;;1.30;99.90;;;;;;5013017;28;20695;-69
2022/01/11 07:55:59;;;;;;;44.53;15.23;;;1.30;99.90;;;;;;5035451;28;20025;-68
2022/01/11 07:58:25;;;;;;;44.83;15.73;;;1.30;99.90;;;;;;5038504;28;20047;-69
2022/01/11 08:00:51;;;;;;;42.80;15.85;;;1.30;99.90;;;;;;5023195;28;20029;-71
2022/01/11 08:03:17;;;;;;;42.35;15.38;;;1.30;99.90;;;;;;5036397;28;20033;-68
2022/01/11 08:05:43;;;;;;;41.35;15.65;;;1.30;99.90;;;;;;5037514;28;20033;-67
2022/01/11 08:08:08;;;;;;;44.10;14.75;;;1.30;99.90;;;;;;5039769;28;21455;-68
2022/01/11 08:10:34;;;;;;;40.50;15.45;;;1.30;99.90;;;;;;5043753;28;20128;-70
2022/01/11 08:13:06;;;;;;;38.17;14.57;;;1.30;99.90;;;;;;5042433;28;20231;-68
2022/01/11 08:15:33;;;;;;;137.73;51.83;;;1.40;99.90;;;;;;5043638;28;20032;-67
2022/01/11 08:17:59;;;;;;;51.13;18.55;;;1.40;99.90;;;;;;5038007;28;20653;-69
2022/01/11 08:20:25;;;;;;;47.95;18.33;;;1.40;99.90;;;;;;5044083;28;20014;-68
2022/01/11 08:22:52;;;;;;;49.72;16.15;;;1.50;99.90;;;;;;5048848;28;20129;-68
2022/01/11 08:25:19;;;;;;;42.53;15.57;;;1.40;99.90;;;;;;5043165;28;20725;-70
2022/01/11 08:27:44;;;;;;;48.92;15.00;;;1.40;99.90;;;;;;5039815;28;20040;-69
2022/01/11 08:30:11;;;;;;;49.85;17.42;;;1.40;99.90;;;;;;5049636;28;20528;-69
2022/01/11 08:32:36;;;;;;;52.00;18.33;;;1.40;99.90;;;;;;5047478;28;20055;-71
2022/01/11 08:35:03;;;;;;;46.67;17.10;;;1.40;99.90;;;;;;5035824;28;20033;-69
2022/01/11 08:37:28;;;;;;;43.05;16.63;;;1.40;99.90;;;;;;5049919;28;20656;-68
2022/01/11 08:39:54;;;;;;;487.70;160.75;;;1.50;99.90;;;;;;5049005;28;20086;-70
2022/01/11 08:42:20;;;;;;;87.68;33.33;;;1.60;99.90;;;;;;5050795;28;20061;-68
2022/01/11 08:44:47;;;;;;;52.50;18.33;;;1.60;99.90;;;;;;5042465;28;20033;-68
2022/01/11 08:47:14;;;;;;;41.92;15.85;;;1.50;99.90;;;;;;5038502;28;20029;-68
2022/01/11 08:49:40;;;;;;;38.55;15.70;;;1.50;99.90;;;;;;5037451;28;20025;-64
2022/01/11 08:52:06;;;;;;;41.67;15.52;;;1.60;99.90;;;;;;5032830;28;20765;-66
2022/01/11 08:54:32;;;;;;;41.35;15.07;;;1.70;99.90;;;;;;5046673;28;20040;-67
2022/01/11 08:56:59;;;;;;;42.60;15.57;;;1.70;99.90;;;;;;5050196;28;20043;-68
2022/01/11 08:59:25;;;;;;;41.10;16.77;;;1.80;99.90;;;;;;5050071;28;20025;-70
2022/01/11 09:01:52;;;;;;;45.08;16.85;;;1.80;99.90;;;;;;5047344;28;20037;-70
2022/01/11 09:04:18;;;;;;;46.63;17.65;;;1.80;99.90;;;;;;5033098;28;20976;-68
2022/01/11 09:06:44;;;;;;;38.60;15.40;;;1.80;99.90;;;;;;5035708;28;20116;-68
2022/01/11 09:09:11;;;;;;;39.70;15.63;;;1.80;99.90;;;;;;5040100;28;20128;-67
2022/01/11 09:11:37;;;;;;;41.55;15.63;;;1.80;99.90;;;;;;5044790;28;20060;-70
2022/01/11 09:14:03;;;;;;;38.10;15.55;;;1.80;99.90;;;;;;5048747;28;20177;-68
2022/01/11 09:16:28;;;;;;;37.80;15.23;;;1.80;99.90;;;;;;5042361;28;20563;-68
2022/01/11 09:18:54;;;;;;;51.03;17.98;;;1.90;99.90;;;;;;5039656;28;20025;-69
2022/01/11 09:21:22;;;;;;;45.03;17.60;;;2.10;99.90;;;;;;5047199;28;20389;-69
2022/01/11 09:23:48;;;;;;;50.78;18.17;;;2.10;99.90;;;;;;5038478;28;20048;-67
2022/01/11 09:26:14;;;;;;;49.88;19.02;;;2.20;99.90;;;;;;5042389;28;20493;-68
2022/01/11 09:28:41;;;;;;;43.08;18.02;;;2.20;99.90;;;;;;5037182;28;20053;-69
2022/01/11 09:31:07;;;;;;;51.65;19.23;;;2.20;99.90;;;;;;5049047;28;20411;-69
2022/01/11 09:33:33;;;;;;;51.88;19.58;;;2.30;99.90;;;;;;5047711;28;20060;-71
2022/01/11 09:36:00;;;;;;;50.47;18.67;;;2.20;99.90;;;;;;5048718;28;20033;-69
2022/01/11 09:38:26;;;;;;;46.33;17.55;;;2.20;99.90;;;;;;5048496;28;20025;-68
2022/01/11 09:40:54;;;;;;;46.28;16.23;;;2.20;99.90;;;;;;5048571;28;20086;-66
2022/01/11 09:43:21;;;;;;;47.40;17.92;;;2.30;99.90;;;;;;5049357;28;20041;-70
2022/01/11 09:45:49;;;;;;;43.75;15.48;;;2.40;99.90;;;;;;5035773;28;20033;-70
2022/01/11 09:48:18;;;;;;;46.88;16.73;;;2.40;99.90;;;;;;5044164;28;20124;-69
2022/01/11 09:50:43;;;;;;;42.42;16.20;;;2.40;99.90;;;;;;5048272;28;20807;-66
2022/01/11 09:53:09;;;;;;;41.97;15.52;;;2.40;99.90;;;;;;5041513;28;20052;-68
2022/01/11 09:55:36;;;;;;;44.17;16.55;;;2.30;99.90;;;;;;5023895;28;20029;-70
2022/01/11 09:58:03;;;;;;;45.08;17.20;;;2.40;99.90;;;;;;5048139;28;20028;-70
2022/01/11 10:00:29;;;;;;;48.03;17.60;;;2.50;99.90;;;;;;5048092;28;20059;-70
2022/01/11 10:02:55;;;;;;;45.92;17.35;;;2.60;99.90;;;;;;5030785;28;20061;-72
2022/01/11 10:05:21;;;;;;;44.72;16.58;;;2.60;99.90;;;;;;5048795;28;20057;-69
2022/01/11 10:07:47;;;;;;;43.38;15.88;;;2.60;99.90;;;;;;5043962;28;20059;-65
2022/01/11 10:10:14;;;;;;;38.83;13.60;;;2.60;99.90;;;;;;5048681;28;20458;-69
2022/01/11 10:12:49;;;;;;;40.95;15.00;;;2.60;99.90;;;;;;5048774;28;20083;-68
2022/01/11 10:15:24;;;;;;;40.63;15.05;;;2.60;99.90;;;;;;5047818;28;20126;-69
2022/01/11 10:17:50;;;;;;;39.97;13.70;;;2.70;99.90;;;;;;5036539;28;20095;-69
2022/01/11 10:20:20;;;;;;;39.05;15.82;;;2.70;99.90;;;;;;5045389;28;20061;-68
2022/01/11 10:22:52;;;;;;;39.40;14.40;;;2.80;99.90;;;;;;5037903;28;20043;-67
2022/01/11 10:25:19;;;;;;;45.35;16.00;;;2.90;99.90;;;;;;5046968;28;20043;-69
2022/01/11 10:28:02;;;;;;;41.95;14.60;;;2.90;99.90;;;;;;5046986;28;20025;-66
2022/01/11 10:30:30;;;;;;;35.03;13.25;;;3.00;99.90;;;;;;5046779;28;20056;-69
2022/01/11 10:33:00;;;;;;;40.10;14.15;;;3.00;99.90;;;;;;5048135;28;20033;-68
2022/01/11 10:35:28;;;;;;;40.95;15.18;;;3.00;99.90;;;;;;5047842;28;20032;-69
2022/01/11 10:37:57;;;;;;;38.75;13.85;;;3.00;99.90;;;;;;5045743;28;20033;-66
2022/01/11 10:40:26;;;;;;;33.75;12.57;;;3.10;99.90;;;;;;5036668;28;20500;-68
2022/01/11 10:43:00;;;;;;;31.42;12.77;;;3.20;99.90;;;;;;5047193;28;20067;-69
2022/01/11 10:45:31;;;;;;;33.80;11.98;;;3.20;99.90;;;;;;5046376;28;20029;-67
2022/01/11 10:48:06;;;;;;;34.03;12.38;;;3.10;99.90;;;;;;5047389;28;20105;-68
2022/01/11 10:50:40;;;;;;;39.00;12.85;;;3.10;99.90;;;;;;5048130;28;20039;-66
2022/01/11 10:53:17;;;;;;;37.42;13.40;;;3.00;99.90;;;;;;5046871;28;20037;-67
2022/01/11 10:55:48;;;;;;;35.22;12.55;;;2.90;99.90;;;;;;5048560;28;20116;-67
2022/01/11 10:58:14;;;;;;;41.92;14.05;;;3.00;99.90;;;;;;5047836;28;20036;-69
2022/01/11 11:00:45;;;;;;;34.38;12.88;;;3.00;99.90;;;;;;5047925;28;20036;-68
2022/01/11 11:03:13;;;;;;;;;;;3.10;99.90;;;;;;5043594;28;20029;-70
2022/01/11 11:05:45;;;;;;;39.75;13.85;;;3.10;99.90;;;;;;5035620;28;20277;-69
2022/01/11 11:08:13;;;;;;;34.45;12.88;;;3.20;99.90;;;;;;5036242;28;20127;-70
2022/01/11 11:10:57;;;;;;;32.20;11.52;;;3.30;99.90;;;;;;5041119;28;20106;-69
2022/01/11 11:13:26;;;;;;;34.05;12.23;;;3.20;99.90;;;;;;5036718;28;20132;-67
2022/01/11 11:15:57;;;;;;;37.83;13.77;;;3.20;99.90;;;;;;5036977;28;20033;-64
2022/01/11 11:18:32;;;;;;;31.45;11.18;;;3.30;99.90;;;;;;5032912;28;20517;-68
2022/01/11 11:21:13;;;;;;;34.70;11.45;;;3.30;99.90;;;;;;5046251;28;20158;-68
2022/01/11 11:23:39;;;;;;;30.33;10.48;;;3.30;99.90;;;;;;5046268;28;20041;-66
2022/01/11 11:26:05;;;;;;;30.58;10.77;;;3.30;99.90;;;;;;5027312;28;20028;-68
2022/01/11 11:28:30;;;;;;;28.50;11.48;;;3.30;99.90;;;;;;5043908;28;20025;-68
2022/01/11 11:30:57;;;;;;;31.30;11.18;;;3.30;99.90;;;;;;5041926;28;20426;-68
2022/01/11 11:33:24;;;;;;;30.35;10.88;;;3.40;99.90;;;;;;5047104;28;20060;-68
2022/01/11 11:35:50;;;;;;;29.92;11.38;;;3.50;99.90;;;;;;5044172;28;20033;-66
2022/01/11 11:38:19;;;;;;;33.05;11.82;;;3.50;99.90;;;;;;5037654;28;20028;-73
2022/01/11 11:40:51;;;;;;;37.33;12.98;;;3.60;99.90;;;;;;5027472;28;20026;-73
2022/01/11 11:43:17;;;;;;;36.30;14.35;;;3.60;99.90;;;;;;5044868;28;20047;-74
2022/01/11 11:45:44;;;;;;;37.10;14.85;;;3.60;99.90;;;;;;5025778;28;20342;-68
2022/01/11 11:48:13;;;;;;;39.20;15.52;;;3.60;99.90;;;;;;5041121;28;20101;-71
2022/01/11 11:50:57;;;;;;;31.10;11.90;;;3.50;99.90;;;;;;5051210;28;20792;-72
2022/01/11 11:53:35;;;;;;;48.80;21.23;;;3.60;99.90;;;;;;5042455;28;20137;-72
2022/01/11 11:56:33;;;;;;;28.65;11.45;;;3.40;99.90;;;;;;5036160;28;20034;-70
2022/01/11 11:59:05;;;;;;;32.13;11.18;;;3.40;99.90;;;;;;5029637;28;20580;-70
2022/01/11 12:01:42;;;;;;;27.65;10.43;;;3.50;99.90;;;;;;5041083;28;20041;-71
2022/01/11 12:04:36;;;;;;;31.55;10.30;;;3.50;99.90;;;;;;5050785;28;20032;-72
2022/01/11 12:07:29;;;;;;;25.27;9.60;;;3.50;99.90;;;;;;5049880;28;20477;-70
2022/01/11 12:09:55;;;;;;;27.95;10.43;;;3.60;99.90;;;;;;5044190;28;20025;-70
2022/01/11 12:12:39;;;;;;;22.77;9.00;;;3.50;99.90;;;;;;5051458;28;20044;-70
2022/01/11 12:15:32;;;;;;;19.52;7.80;;;3.50;99.90;;;;;;5046796;28;20760;-71
2022/01/11 12:17:57;;;;;;;15.23;5.68;;;3.50;99.90;;;;;;5044492;28;20063;-71
2022/01/11 12:20:45;;;;;;;14.07;5.65;;;3.50;99.90;;;;;;5032841;28;20134;-70
2022/01/11 12:23:13;;;;;;;17.42;6.55;;;3.50;99.90;;;;;;5042649;28;20051;-68
2022/01/11 12:25:43;;;;;;;19.67;7.10;;;3.40;99.90;;;;;;5050470;28;20040;-71
2022/01/11 12:28:17;;;;;;;16.85;7.07;;;3.30;99.90;;;;;;5042259;28;20021;-71
2022/01/11 12:30:43;;;;;;;22.23;8.20;;;3.40;99.90;;;;;;5048343;28;20037;-70
2022/01/11 12:33:19;;;;;;;20.73;7.90;;;3.30;99.90;;;;;;5049568;28;20033;-72
2022/01/11 12:36:03;;;;;;;21.40;7.80;;;3.40;99.90;;;;;;5050719;28;20064;-72
2022/01/11 12:38:36;;;;;;;26.08;8.88;;;3.30;99.90;;;;;;5046559;28;20107;-72
2022/01/11 12:41:30;;;;;;;21.48;8.70;;;3.20;99.90;;;;;;5050281;28;20092;-71
2022/01/11 12:44:18;;;;;;;24.48;9.13;;;3.10;99.90;;;;;;5048110;28;20087;-70